Time;durP1;ratioP1;P1;durP2;ratioP2;P2;SDS_P1;SDS_P2;PMS_P1;PMS_P2;Temp;Humidity;BMP_temperature;BMP_pressure;BME280_temperature;BME280_humidity;BME280_pressure;Samples;Min_cycle;Max_cycle;Signal;HPM_P1;HPM_P2
2022/03/12 00:06:27;;;;;;;21.3;34.6;;;;;;;-6.2;58.6;100320;;;;
2022/03/12 00:17:29;;;;;;;21.3;34.6;;;;;;;-6.3;58.9;100310;;;;
2022/03/12 00:28:27;;;;;;;19.4;33.5;;;;;;;-6.4;59.9;100310;;;;
2022/03/12 00:38:28;;;;;;;19.4;33.5;;;;;;;-6.4;59.8;100300;;;;
2022/03/12 00:48:27;;;;;;;19.4;33.5;;;;;;;-6.5;61.3;100290;;;;
2022/03/12 00:59:27;;;;;;;18.3;34.4;;;;;;;-6.6;61.4;100290;;;;
2022/03/12 01:09:28;;;;;;;18.3;34.4;;;;;;;-6.7;61.1;100290;;;;
2022/03/12 01:19:28;;;;;;;18.3;34.4;;;;;;;-6.8;61.1;100300;;;;
2022/03/12 01:30:28;;;;;;;17.2;34.8;;;;;;;-6.9;63;100300;;;;
2022/03/12 01:41:28;;;;;;;17.2;34.8;;;;;;;-7;64.6;100290;;;;
2022/03/12 01:52:27;;;;;;;17.2;34.8;;;;;;;-7;63.1;100290;;;;
2022/03/12 02:02:29;;;;;;;16.2;29.5;;;;;;;-6.9;62.1;100280;;;;
2022/03/12 02:12:28;;;;;;;16.2;29.5;;;;;;;-6.7;61.5;100250;;;;
2022/03/12 02:23:28;;;;;;;16.2;29.5;;;;;;;-6.4;60.4;100250;;;;
2022/03/12 02:34:29;;;;;;;11.5;20;;;;;;;-6.8;63.4;100250;;;;
2022/03/12 02:44:28;;;;;;;11.5;20;;;;;;;-6.8;63.1;100260;;;;
2022/03/12 02:54:28;;;;;;;11.5;20;;;;;;;-7;63.9;100250;;;;
2022/03/12 03:05:33;;;;;;;18.4;35.1;;;;;;;-7.2;65.2;100260;;;;
2022/03/12 03:15:30;;;;;;;18.4;35.1;;;;;;;-7.1;64;100260;;;;
2022/03/12 03:26:27;;;;;;;14.5;27.8;;;;;;;-7.3;65.7;100250;;;;
2022/03/12 03:36:27;;;;;;;14.5;27.8;;;;;;;-7.3;65.2;100250;;;;
2022/03/12 03:47:28;;;;;;;14.5;27.8;;;;;;;-7.2;65;100250;;;;
2022/03/12 03:58:30;;;;;;;15.2;27.9;;;;;;;-7.2;64;100260;;;;
2022/03/12 04:09:28;;;;;;;15.2;27.9;;;;;;;-7.3;65.3;100240;;;;
2022/03/12 04:19:30;;;;;;;15.2;27.9;;;;;;;-7.3;65.7;100240;;;;
2022/03/12 04:29:28;;;;;;;11.8;19.5;;;;;;;-7.3;65.2;100240;;;;
2022/03/12 04:40:29;;;;;;;11.8;19.5;;;;;;;-7.4;65.3;100240;;;;
2022/03/12 04:50:27;;;;;;;11.8;19.5;;;;;;;-7.4;66.2;100230;;;;
2022/03/12 05:00:28;;;;;;;13.1;25.3;;;;;;;-7;64.7;100220;;;;
2022/03/12 05:10:29;;;;;;;13.1;25.3;;;;;;;-6.6;63.1;100220;;;;
2022/03/12 05:21:28;;;;;;;13.1;25.3;;;;;;;-6.7;64.3;100230;;;;
2022/03/12 05:31:28;;;;;;;14.1;24.7;;;;;;;-6.9;65.3;100220;;;;
2022/03/12 05:42:29;;;;;;;14.1;24.7;;;;;;;-6.8;65.7;100230;;;;
2022/03/12 05:52:28;;;;;;;14.1;24.7;;;;;;;-6.5;65.4;100240;;;;
2022/03/12 06:02:28;;;;;;;20.3;31.1;;;;;;;-6.4;65.8;100240;;;;
2022/03/12 06:13:29;;;;;;;20.3;31.1;;;;;;;-6;65.1;100230;;;;
2022/03/12 06:23:28;;;;;;;20.3;31.1;;;;;;;-5.7;64.8;100230;;;;
2022/03/12 06:34:29;;;;;;;21.7;38.8;;;;;;;-5.1;63.9;100230;;;;
2022/03/12 06:44:31;;;;;;;21.7;38.8;;;;;;;-4.6;63.5;100240;;;;
2022/03/12 06:54:28;;;;;;;21.7;38.8;;;;;;;-4.1;62.1;100240;;;;
2022/03/12 07:04:28;;;;;;;27;36.5;;;;;;;-3.7;61.3;100240;;;;
2022/03/12 07:15:29;;;;;;;27;36.5;;;;;;;-3.3;60.8;100240;;;;
2022/03/12 07:26:28;;;;;;;31.3;39.2;;;;;;;-2.8;60.1;100240;;;;
2022/03/12 07:36:28;;;;;;;31.3;39.2;;;;;;;-2.3;58.9;100240;;;;
2022/03/12 07:46:28;;;;;;;31.3;39.2;;;;;;;-1.8;57.5;100250;;;;
2022/03/12 07:57:28;;;;;;;50.5;65.4;;;;;;;-1.1;53.3;100250;;;;
2022/03/12 08:07:28;;;;;;;50.5;65.4;;;;;;;-0.8;47.2;100240;;;;
2022/03/12 08:18:28;;;;;;;50.5;65.4;;;;;;;-0.1;44.7;100230;;;;
2022/03/12 08:28:28;;;;;;;14.2;17.8;;;;;;;0.5;44;100230;;;;
2022/03/12 08:39:28;;;;;;;14.2;17.8;;;;;;;1.2;42.5;100230;;;;
2022/03/12 08:49:28;;;;;;;14.2;17.8;;;;;;;1.7;40.6;100220;;;;
2022/03/12 08:59:28;;;;;;;13.3;17.5;;;;;;;1.8;39.1;100230;;;;
2022/03/12 09:10:28;;;;;;;13.3;17.5;;;;;;;2.2;38.1;100240;;;;
2022/03/12 09:21:28;;;;;;;13.3;17.5;;;;;;;2.9;35.8;100230;;;;
2022/03/12 09:32:28;;;;;;;12.2;16.8;;;;;;;3;34;100230;;;;
2022/03/12 09:42:30;;;;;;;12.2;16.8;;;;;;;3;35.3;100220;;;;
2022/03/12 09:53:28;;;;;;;12.2;16.8;;;;;;;3.7;33.7;100190;;;;
2022/03/12 10:04:28;;;;;;;10.1;15.1;;;;;;;4;32.8;100180;;;;
2022/03/12 10:15:28;;;;;;;10.1;15.1;;;;;;;4.4;32;100170;;;;
2022/03/12 10:25:28;;;;;;;9.1;13.9;;;;;;;4.6;30.1;100150;;;;
2022/03/12 10:36:28;;;;;;;9.1;13.9;;;;;;;5.1;30.1;100130;;;;
2022/03/12 10:47:28;;;;;;;9.1;13.9;;;;;;;5.6;28.6;100130;;;;
2022/03/12 10:58:28;;;;;;;8.3;11.7;;;;;;;5.8;27.2;100110;;;;
2022/03/12 11:08:28;;;;;;;8.3;11.7;;;;;;;6.1;28.6;100100;;;;
2022/03/12 11:19:45;;;;;;;8.3;11.7;;;;;;;6.4;27.7;100100;;;;
2022/03/12 11:30:28;;;;;;;11.1;13.7;;;;;;;6.6;29.5;100090;;;;
2022/03/12 11:40:28;;;;;;;11.1;13.7;;;;;;;6.6;26.5;100070;;;;
2022/03/12 11:51:29;;;;;;;11.1;13.7;;;;;;;6.9;27.2;100050;;;;
2022/03/12 12:02:29;;;;;;;12.2;15.6;;;;;;;7.2;27;100040;;;;
2022/03/12 12:12:32;;;;;;;12.2;15.6;;;;;;;7.4;26.9;100030;;;;
2022/03/12 12:23:28;;;;;;;12.2;15.6;;;;;;;7.3;27.7;100020;;;;
2022/03/12 12:34:29;;;;;;;11.7;14.7;;;;;;;7.1;25.3;100010;;;;
2022/03/12 12:44:28;;;;;;;11.7;14.7;;;;;;;7.7;25.1;100010;;;;
2022/03/12 12:54:28;;;;;;;9.4;12.6;;;;;;;7.6;24.8;100000;;;;
2022/03/12 13:04:28;;;;;;;9.4;12.6;;;;;;;7.7;24.8;99990;;;;
2022/03/12 13:15:28;;;;;;;9.4;12.6;;;;;;;8;25.3;99990;;;;
2022/03/12 13:25:28;;;;;;;9.5;14.1;;;;;;;8.2;25.4;99980;;;;
2022/03/12 13:35:28;;;;;;;9.5;14.1;;;;;;;8.1;24.3;99980;;;;
2022/03/12 13:46:28;;;;;;;9.5;14.1;;;;;;;7.8;24.3;99970;;;;
2022/03/12 13:56:29;;;;;;;8.8;14.6;;;;;;;7.8;23;99970;;;;
2022/03/12 14:06:28;;;;;;;8.8;14.6;;;;;;;7.9;21.9;99950;;;;
2022/03/12 14:17:28;;;;;;;8.8;14.6;;;;;;;7.7;23.2;99930;;;;
2022/03/12 14:27:28;;;;;;;5.8;8;;;;;;;7.9;23.1;99920;;;;
2022/03/12 14:37:28;;;;;;;5.8;8;;;;;;;7.7;23;99920;;;;
2022/03/12 14:47:28;;;;;;;5.8;8;;;;;;;7.5;23.6;99920;;;;
2022/03/12 14:57:28;;;;;;;7.4;11.3;;;;;;;7.6;23.7;99910;;;;
2022/03/12 15:08:28;;;;;;;7.4;11.3;;;;;;;7.5;25.1;99910;;;;
2022/03/12 15:18:28;;;;;;;7.4;11.3;;;;;;;7.5;25.9;99900;;;;
2022/03/12 15:28:28;;;;;;;8.6;13.2;;;;;;;7.2;25.8;99890;;;;
2022/03/12 15:38:28;;;;;;;8.6;13.2;;;;;;;7.2;26.4;99890;;;;
2022/03/12 15:48:28;;;;;;;8.6;13.2;;;;;;;8;25.5;99890;;;;
2022/03/12 15:59:28;;;;;;;10.6;14.4;;;;;;;8.2;24.3;99880;;;;
2022/03/12 16:10:28;;;;;;;10.6;14.4;;;;;;;7.2;24.6;99890;;;;
2022/03/12 16:20:29;;;;;;;10.6;14.4;;;;;;;6.3;25.1;99880;;;;
2022/03/12 16:30:28;;;;;;;11.1;14.2;;;;;;;5.2;26.2;99890;;;;
2022/03/12 16:40:30;;;;;;;11.1;14.2;;;;;;;4.4;27.3;99880;;;;
2022/03/12 16:51:29;;;;;;;11.1;14.2;;;;;;;3.6;28.4;99870;;;;
2022/03/12 17:01:28;;;;;;;20.1;24.5;;;;;;;3;29.3;99870;;;;
2022/03/12 17:12:28;;;;;;;20.1;24.5;;;;;;;2.3;30.5;99870;;;;
2022/03/12 17:23:28;;;;;;;18.5;23.9;;;;;;;1.8;32.2;99860;;;;
2022/03/12 17:34:28;;;;;;;18.5;23.9;;;;;;;1.3;33.4;99870;;;;
2022/03/12 17:44:28;;;;;;;18.5;23.9;;;;;;;1.1;34.7;99870;;;;
2022/03/12 17:54:28;;;;;;;20.6;27.6;;;;;;;0.9;35.7;99870;;;;
2022/03/12 18:04:28;;;;;;;20.6;27.6;;;;;;;0.5;36.9;99870;;;;
2022/03/12 18:15:28;;;;;;;20.6;27.6;;;;;;;0.3;38.1;99880;;;;
2022/03/12 18:26:28;;;;;;;25.4;32.2;;;;;;;0.1;38.3;99870;;;;
2022/03/12 18:36:28;;;;;;;25.4;32.2;;;;;;;-0.2;39.1;99880;;;;
2022/03/12 18:46:28;;;;;;;25.4;32.2;;;;;;;-0.4;39;99880;;;;
2022/03/12 18:57:28;;;;;;;54.3;68.1;;;;;;;-0.7;39.8;99880;;;;
2022/03/12 19:08:32;;;;;;;54.3;68.1;;;;;;;-0.9;41.5;99880;;;;
2022/03/12 19:19:29;;;;;;;54.3;68.1;;;;;;;-1;40.5;99860;;;;
2022/03/12 19:29:28;;;;;;;59;81.1;;;;;;;-1.3;41.5;99860;;;;
2022/03/12 19:39:28;;;;;;;59;81.1;;;;;;;-1.7;44.3;99870;;;;
2022/03/12 19:50:28;;;;;;;59;81.1;;;;;;;-1.6;45.8;99860;;;;
2022/03/12 20:00:28;;;;;;;75.2;114.7;;;;;;;-1.9;44.6;99870;;;;
2022/03/12 20:11:28;;;;;;;75.2;114.7;;;;;;;-2.4;45.6;99880;;;;
2022/03/12 20:21:28;;;;;;;75.2;114.7;;;;;;;-2.6;46.6;99880;;;;
2022/03/12 20:32:28;;;;;;;56.3;83.3;;;;;;;-2.9;47.7;99860;;;;
2022/03/12 20:42:28;;;;;;;56.3;83.3;;;;;;;-3.1;48.6;99870;;;;
2022/03/12 20:52:28;;;;;;;56.5;87.2;;;;;;;-3.2;48.9;99870;;;;
2022/03/12 21:02:28;;;;;;;56.5;87.2;;;;;;;-3.1;50.4;99860;;;;
2022/03/12 21:13:28;;;;;;;56.5;87.2;;;;;;;-3.3;49.3;99860;;;;
2022/03/12 21:23:28;;;;;;;51.1;78.3;;;;;;;-3.5;49.3;99860;;;;
2022/03/12 21:34:28;;;;;;;51.1;78.3;;;;;;;-3.4;50.6;99860;;;;
2022/03/12 21:44:28;;;;;;;51.1;78.3;;;;;;;-3.6;51.3;99850;;;;
2022/03/12 21:55:28;;;;;;;50.5;74.2;;;;;;;-3.8;52.1;99840;;;;
2022/03/12 22:05:28;;;;;;;50.5;74.2;;;;;;;-4;52.2;99840;;;;
2022/03/12 22:15:28;;;;;;;50.5;74.2;;;;;;;-4.1;52.6;99840;;;;
2022/03/12 22:25:28;;;;;;;50.2;71.9;;;;;;;-4.2;53.4;99840;;;;
2022/03/12 22:36:29;;;;;;;50.2;71.9;;;;;;;-4.3;54.1;99830;;;;
2022/03/12 22:47:29;;;;;;;50.2;71.9;;;;;;;-3.9;53.5;99820;;;;
2022/03/12 22:57:30;;;;;;;44.1;69.7;;;;;;;-4.1;53;99810;;;;
2022/03/12 23:09:02;;;;;;;44.1;69.7;;;;;;;-4.3;55.3;99810;;;;
2022/03/12 23:18:28;;;;;;;44.1;69.7;;;;;;;-4;56.1;99810;;;;
2022/03/12 23:28:28;;;;;;;42.2;62;;;;;;;-4;54.9;99810;;;;
2022/03/12 23:39:28;;;;;;;42.2;62;;;;;;;-4.1;54.8;99820;;;;
2022/03/12 23:49:30;;;;;;;42.2;62;;;;;;;-4.3;54.8;99820;;;;
2022/03/12 23:59:29;;;;;;;44.8;66.3;;;;;;;-4.5;56.4;99830;;;;
